sensor_id;sensor_type;location;lat;lon;timestamp;P1;durP1;ratioP1;P2;durP2;ratioP2
17890;SDS011;9071;48.220;14.480;2023-08-21T00:00:11;16.33;;;14.35;;
17890;SDS011;9071;48.220;14.480;2023-08-21T00:05:13;20.83;;;14.60;;
17890;SDS011;9071;48.220;14.480;2023-08-21T00:10:16;19.40;;;15.73;;
17890;SDS011;9071;48.220;14.480;2023-08-21T00:15:19;25.63;;;16.58;;
17890;SDS011;9071;48.220;14.480;2023-08-21T00:20:21;18.63;;;15.98;;
17890;SDS011;9071;48.220;14.480;2023-08-21T00:25:24;20.05;;;15.38;;
17890;SDS011;9071;48.220;14.480;2023-08-21T00:30:28;20.02;;;15.55;;
17890;SDS011;9071;48.220;14.480;2023-08-21T00:35:30;17.13;;;15.25;;
17890;SDS011;9071;48.220;14.480;2023-08-21T00:40:32;18.45;;;15.35;;
17890;SDS011;9071;48.220;14.480;2023-08-21T00:45:35;17.45;;;15.57;;
17890;SDS011;9071;48.220;14.480;2023-08-21T00:50:39;17.70;;;15.35;;
17890;SDS011;9071;48.220;14.480;2023-08-21T00:55:41;19.38;;;16.23;;
17890;SDS011;9071;48.220;14.480;2023-08-21T01:00:46;19.70;;;15.40;;
17890;SDS011;9071;48.220;14.480;2023-08-21T01:05:50;18.50;;;15.80;;
17890;SDS011;9071;48.220;14.480;2023-08-21T01:10:53;18.88;;;16.50;;
17890;SDS011;9071;48.220;14.480;2023-08-21T01:16:00;17.58;;;15.68;;
17890;SDS011;9071;48.220;14.480;2023-08-21T01:21:05;21.48;;;16.45;;
17890;SDS011;9071;48.220;14.480;2023-08-21T01:26:08;17.33;;;15.60;;
17890;SDS011;9071;48.220;14.480;2023-08-21T01:31:11;18.75;;;15.70;;
17890;SDS011;9071;48.220;14.480;2023-08-21T01:36:20;19.33;;;16.15;;
17890;SDS011;9071;48.220;14.480;2023-08-21T01:41:24;18.70;;;15.63;;
17890;SDS011;9071;48.220;14.480;2023-08-21T01:46:26;17.45;;;15.57;;
17890;SDS011;9071;48.220;14.480;2023-08-21T01:51:28;17.45;;;15.35;;
17890;SDS011;9071;48.220;14.480;2023-08-21T01:56:32;18.38;;;14.60;;
17890;SDS011;9071;48.220;14.480;2023-08-21T02:01:34;19.20;;;15.35;;
17890;SDS011;9071;48.220;14.480;2023-08-21T02:06:36;16.83;;;14.75;;
17890;SDS011;9071;48.220;14.480;2023-08-21T02:11:39;19.15;;;15.75;;
17890;SDS011;9071;48.220;14.480;2023-08-21T02:16:41;17.90;;;15.45;;
17890;SDS011;9071;48.220;14.480;2023-08-21T02:21:43;18.10;;;15.25;;
17890;SDS011;9071;48.220;14.480;2023-08-21T02:26:47;17.35;;;15.10;;
17890;SDS011;9071;48.220;14.480;2023-08-21T02:31:49;18.70;;;15.85;;
17890;SDS011;9071;48.220;14.480;2023-08-21T02:36:51;19.80;;;16.33;;
17890;SDS011;9071;48.220;14.480;2023-08-21T02:41:55;20.50;;;15.95;;
17890;SDS011;9071;48.220;14.480;2023-08-21T02:46:57;21.30;;;17.55;;
17890;SDS011;9071;48.220;14.480;2023-08-21T02:51:59;21.38;;;17.77;;
17890;SDS011;9071;48.220;14.480;2023-08-21T02:57:02;19.42;;;16.55;;
17890;SDS011;9071;48.220;14.480;2023-08-21T03:02:04;20.90;;;17.73;;
17890;SDS011;9071;48.220;14.480;2023-08-21T03:07:07;19.52;;;16.48;;
17890;SDS011;9071;48.220;14.480;2023-08-21T03:12:10;18.48;;;15.75;;
17890;SDS011;9071;48.220;14.480;2023-08-21T03:17:13;19.42;;;16.90;;
17890;SDS011;9071;48.220;14.480;2023-08-21T03:22:15;20.17;;;15.63;;
17890;SDS011;9071;48.220;14.480;2023-08-21T03:27:19;19.95;;;16.48;;
17890;SDS011;9071;48.220;14.480;2023-08-21T03:32:21;19.98;;;15.48;;
17890;SDS011;9071;48.220;14.480;2023-08-21T03:37:23;19.58;;;15.90;;
17890;SDS011;9071;48.220;14.480;2023-08-21T03:42:26;22.35;;;17.05;;
17890;SDS011;9071;48.220;14.480;2023-08-21T03:47:28;21.02;;;17.67;;
17890;SDS011;9071;48.220;14.480;2023-08-21T03:52:31;21.27;;;18.17;;
17890;SDS011;9071;48.220;14.480;2023-08-21T03:57:34;26.60;;;18.42;;
17890;SDS011;9071;48.220;14.480;2023-08-21T04:02:36;21.80;;;17.50;;
17890;SDS011;9071;48.220;14.480;2023-08-21T04:07:38;20.50;;;17.02;;
17890;SDS011;9071;48.220;14.480;2023-08-21T04:12:42;23.08;;;16.85;;
17890;SDS011;9071;48.220;14.480;2023-08-21T04:17:44;20.95;;;16.92;;
17890;SDS011;9071;48.220;14.480;2023-08-21T04:22:46;24.55;;;17.42;;
17890;SDS011;9071;48.220;14.480;2023-08-21T04:27:50;19.88;;;17.35;;
17890;SDS011;9071;48.220;14.480;2023-08-21T04:32:52;19.83;;;16.58;;
17890;SDS011;9071;48.220;14.480;2023-08-21T04:37:54;21.60;;;17.33;;
17890;SDS011;9071;48.220;14.480;2023-08-21T04:42:57;20.58;;;16.88;;
17890;SDS011;9071;48.220;14.480;2023-08-21T04:47:59;19.08;;;16.08;;
17890;SDS011;9071;48.220;14.480;2023-08-21T04:53:02;19.92;;;17.20;;
17890;SDS011;9071;48.220;14.480;2023-08-21T04:58:06;23.83;;;17.08;;
17890;SDS011;9071;48.220;14.480;2023-08-21T05:03:08;19.77;;;17.17;;
17890;SDS011;9071;48.220;14.480;2023-08-21T05:08:10;18.88;;;15.57;;
17890;SDS011;9071;48.220;14.480;2023-08-21T05:13:14;20.65;;;17.85;;
17890;SDS011;9071;48.220;14.480;2023-08-21T05:18:17;21.83;;;17.23;;
17890;SDS011;9071;48.220;14.480;2023-08-21T05:23:20;21.02;;;17.52;;
17890;SDS011;9071;48.220;14.480;2023-08-21T05:28:23;17.38;;;15.50;;
17890;SDS011;9071;48.220;14.480;2023-08-21T05:33:25;19.30;;;15.18;;
17890;SDS011;9071;48.220;14.480;2023-08-21T05:38:28;17.63;;;13.90;;
17890;SDS011;9071;48.220;14.480;2023-08-21T05:43:31;15.40;;;11.35;;
17890;SDS011;9071;48.220;14.480;2023-08-21T05:48:34;14.85;;;10.40;;
17890;SDS011;9071;48.220;14.480;2023-08-21T05:53:36;12.40;;;9.90;;
17890;SDS011;9071;48.220;14.480;2023-08-21T05:58:40;10.48;;;8.75;;
17890;SDS011;9071;48.220;14.480;2023-08-21T06:03:42;11.35;;;9.50;;
17890;SDS011;9071;48.220;14.480;2023-08-21T06:08:45;11.60;;;8.90;;
17890;SDS011;9071;48.220;14.480;2023-08-21T06:13:48;11.38;;;8.80;;
17890;SDS011;9071;48.220;14.480;2023-08-21T06:18:50;13.00;;;9.00;;
17890;SDS011;9071;48.220;14.480;2023-08-21T06:23:52;9.40;;;8.40;;
17890;SDS011;9071;48.220;14.480;2023-08-21T06:28:56;10.55;;;8.63;;
17890;SDS011;9071;48.220;14.480;2023-08-21T06:33:58;12.70;;;9.10;;
17890;SDS011;9071;48.220;14.480;2023-08-21T06:39:00;9.77;;;8.13;;
17890;SDS011;9071;48.220;14.480;2023-08-21T06:44:03;10.02;;;8.60;;
17890;SDS011;9071;48.220;14.480;2023-08-21T06:49:06;9.32;;;8.40;;
17890;SDS011;9071;48.220;14.480;2023-08-21T06:54:08;11.13;;;8.73;;
17890;SDS011;9071;48.220;14.480;2023-08-21T06:59:11;9.77;;;8.27;;
17890;SDS011;9071;48.220;14.480;2023-08-21T07:04:13;10.05;;;8.35;;
17890;SDS011;9071;48.220;14.480;2023-08-21T07:09:15;9.52;;;8.63;;
17890;SDS011;9071;48.220;14.480;2023-08-21T07:14:19;10.35;;;8.68;;
17890;SDS011;9071;48.220;14.480;2023-08-21T07:19:21;9.88;;;8.80;;
17890;SDS011;9071;48.220;14.480;2023-08-21T07:24:23;11.55;;;8.30;;
17890;SDS011;9071;48.220;14.480;2023-08-21T07:29:26;10.27;;;9.00;;
17890;SDS011;9071;48.220;14.480;2023-08-21T07:34:28;9.38;;;8.40;;
17890;SDS011;9071;48.220;14.480;2023-08-21T07:39:30;11.32;;;8.73;;
17890;SDS011;9071;48.220;14.480;2023-08-21T07:44:34;10.38;;;9.30;;
17890;SDS011;9071;48.220;14.480;2023-08-21T07:49:36;9.77;;;8.80;;
17890;SDS011;9071;48.220;14.480;2023-08-21T07:54:38;10.38;;;9.30;;
17890;SDS011;9071;48.220;14.480;2023-08-21T07:59:42;12.38;;;9.63;;
17890;SDS011;9071;48.220;14.480;2023-08-21T08:04:44;10.55;;;9.07;;
17890;SDS011;9071;48.220;14.480;2023-08-21T08:09:46;10.35;;;9.00;;
17890;SDS011;9071;48.220;14.480;2023-08-21T08:14:50;10.93;;;9.85;;
17890;SDS011;9071;48.220;14.480;2023-08-21T08:19:52;12.05;;;10.55;;
17890;SDS011;9071;48.220;14.480;2023-08-21T08:24:54;13.32;;;10.73;;
17890;SDS011;9071;48.220;14.480;2023-08-21T08:29:58;11.65;;;10.48;;
17890;SDS011;9071;48.220;14.480;2023-08-21T08:35:00;12.38;;;10.93;;
17890;SDS011;9071;48.220;14.480;2023-08-21T08:40:02;15.20;;;11.60;;
17890;SDS011;9071;48.220;14.480;2023-08-21T08:45:07;12.30;;;10.32;;
17890;SDS011;9071;48.220;14.480;2023-08-21T08:50:09;18.85;;;12.00;;
17890;SDS011;9071;48.220;14.480;2023-08-21T08:55:12;16.73;;;11.00;;
17890;SDS011;9071;48.220;14.480;2023-08-21T09:00:16;13.55;;;11.43;;
17890;SDS011;9071;48.220;14.480;2023-08-21T09:05:18;16.98;;;12.40;;
17890;SDS011;9071;48.220;14.480;2023-08-21T09:10:20;17.65;;;12.30;;
17890;SDS011;9071;48.220;14.480;2023-08-21T09:15:28;13.20;;;11.77;;
17890;SDS011;9071;48.220;14.480;2023-08-21T09:20:34;16.60;;;12.38;;
17890;SDS011;9071;48.220;14.480;2023-08-21T09:25:37;14.20;;;12.15;;
17890;SDS011;9071;48.220;14.480;2023-08-21T09:30:45;15.15;;;12.25;;
17890;SDS011;9071;48.220;14.480;2023-08-21T09:35:51;14.27;;;11.43;;
17890;SDS011;9071;48.220;14.480;2023-08-21T09:40:54;15.90;;;11.13;;
17890;SDS011;9071;48.220;14.480;2023-08-21T09:45:58;17.20;;;11.80;;
17890;SDS011;9071;48.220;14.480;2023-08-21T09:51:00;15.00;;;11.57;;
17890;SDS011;9071;48.220;14.480;2023-08-21T09:56:04;14.20;;;11.40;;
17890;SDS011;9071;48.220;14.480;2023-08-21T10:01:08;16.05;;;11.77;;
17890;SDS011;9071;48.220;14.480;2023-08-21T10:06:15;14.32;;;11.55;;
17890;SDS011;9071;48.220;14.480;2023-08-21T10:11:18;14.48;;;10.63;;
17890;SDS011;9071;48.220;14.480;2023-08-21T10:16:23;15.65;;;10.88;;
17890;SDS011;9071;48.220;14.480;2023-08-21T10:21:25;12.50;;;9.88;;
17890;SDS011;9071;48.220;14.480;2023-08-21T10:26:27;13.18;;;9.77;;
17890;SDS011;9071;48.220;14.480;2023-08-21T10:31:34;14.93;;;10.27;;
17890;SDS011;9071;48.220;14.480;2023-08-21T10:36:39;13.82;;;11.07;;
17890;SDS011;9071;48.220;14.480;2023-08-21T10:42:05;14.43;;;10.52;;
17890;SDS011;9071;48.220;14.480;2023-08-21T10:47:14;12.82;;;9.50;;
17890;SDS011;9071;48.220;14.480;2023-08-21T10:52:20;13.82;;;8.95;;
17890;SDS011;9071;48.220;14.480;2023-08-21T10:57:24;16.35;;;9.75;;
17890;SDS011;9071;48.220;14.480;2023-08-21T11:02:28;10.63;;;8.68;;
17890;SDS011;9071;48.220;14.480;2023-08-21T11:07:36;9.77;;;8.75;;
17890;SDS011;9071;48.220;14.480;2023-08-21T11:12:47;10.25;;;8.45;;
17890;SDS011;9071;48.220;14.480;2023-08-21T11:17:52;9.48;;;8.13;;
17890;SDS011;9071;48.220;14.480;2023-08-21T11:22:58;9.93;;;8.93;;
17890;SDS011;9071;48.220;14.480;2023-08-21T11:28:02;10.70;;;8.63;;
17890;SDS011;9071;48.220;14.480;2023-08-21T11:33:07;9.52;;;8.55;;
17890;SDS011;9071;48.220;14.480;2023-08-21T11:38:14;9.45;;;7.95;;
17890;SDS011;9071;48.220;14.480;2023-08-21T11:43:17;10.10;;;8.18;;
17890;SDS011;9071;48.220;14.480;2023-08-21T11:48:21;9.27;;;7.68;;
17890;SDS011;9071;48.220;14.480;2023-08-21T11:53:30;9.45;;;7.82;;
17890;SDS011;9071;48.220;14.480;2023-08-21T11:58:33;8.95;;;7.63;;
17890;SDS011;9071;48.220;14.480;2023-08-21T12:03:40;7.78;;;6.97;;
17890;SDS011;9071;48.220;14.480;2023-08-21T12:08:42;9.50;;;7.18;;
17890;SDS011;9071;48.220;14.480;2023-08-21T12:13:44;18.02;;;7.30;;
17890;SDS011;9071;48.220;14.480;2023-08-21T12:18:48;7.82;;;6.63;;
17890;SDS011;9071;48.220;14.480;2023-08-21T12:23:52;9.50;;;5.97;;
17890;SDS011;9071;48.220;14.480;2023-08-21T12:28:54;7.70;;;5.70;;
17890;SDS011;9071;48.220;14.480;2023-08-21T12:33:57;7.88;;;5.97;;
17890;SDS011;9071;48.220;14.480;2023-08-21T12:38:59;7.78;;;5.85;;
17890;SDS011;9071;48.220;14.480;2023-08-21T12:44:02;7.10;;;5.43;;
17890;SDS011;9071;48.220;14.480;2023-08-21T12:49:05;6.45;;;5.78;;
17890;SDS011;9071;48.220;14.480;2023-08-21T12:54:07;7.05;;;5.43;;
17890;SDS011;9071;48.220;14.480;2023-08-21T12:59:10;7.97;;;5.25;;
17890;SDS011;9071;48.220;14.480;2023-08-21T13:04:13;8.02;;;5.88;;
17890;SDS011;9071;48.220;14.480;2023-08-21T13:09:15;9.15;;;5.10;;
17890;SDS011;9071;48.220;14.480;2023-08-21T13:14:17;6.78;;;5.10;;
17890;SDS011;9071;48.220;14.480;2023-08-21T13:19:21;5.38;;;4.88;;
17890;SDS011;9071;48.220;14.480;2023-08-21T13:24:23;6.97;;;4.50;;
17890;SDS011;9071;48.220;14.480;2023-08-21T13:29:26;4.45;;;4.05;;
17890;SDS011;9071;48.220;14.480;2023-08-21T13:34:29;7.43;;;4.10;;
17890;SDS011;9071;48.220;14.480;2023-08-21T13:39:31;5.78;;;3.80;;
17890;SDS011;9071;48.220;14.480;2023-08-21T13:44:34;4.32;;;3.92;;
17890;SDS011;9071;48.220;14.480;2023-08-21T13:49:37;8.98;;;4.30;;
17890;SDS011;9071;48.220;14.480;2023-08-21T13:54:39;6.28;;;4.57;;
17890;SDS011;9071;48.220;14.480;2023-08-21T13:59:41;7.20;;;4.60;;
17890;SDS011;9071;48.220;14.480;2023-08-21T14:04:45;7.05;;;4.97;;
17890;SDS011;9071;48.220;14.480;2023-08-21T14:09:47;6.13;;;5.07;;
17890;SDS011;9071;48.220;14.480;2023-08-21T14:14:49;5.20;;;4.50;;
17890;SDS011;9071;48.220;14.480;2023-08-21T14:19:52;7.47;;;5.00;;
17890;SDS011;9071;48.220;14.480;2023-08-21T14:24:55;6.28;;;5.00;;
17890;SDS011;9071;48.220;14.480;2023-08-21T14:29:57;5.60;;;4.85;;
17890;SDS011;9071;48.220;14.480;2023-08-21T14:35:00;6.30;;;4.00;;
17890;SDS011;9071;48.220;14.480;2023-08-21T14:40:04;7.00;;;4.55;;
17890;SDS011;9071;48.220;14.480;2023-08-21T14:45:08;5.28;;;3.53;;
17890;SDS011;9071;48.220;14.480;2023-08-21T14:50:12;5.15;;;3.45;;
17890;SDS011;9071;48.220;14.480;2023-08-21T14:55:14;4.75;;;3.70;;
17890;SDS011;9071;48.220;14.480;2023-08-21T15:00:16;6.97;;;3.85;;
17890;SDS011;9071;48.220;14.480;2023-08-21T15:05:20;4.72;;;3.97;;
17890;SDS011;9071;48.220;14.480;2023-08-21T15:10:22;4.97;;;4.22;;
17890;SDS011;9071;48.220;14.480;2023-08-21T15:15:24;5.93;;;4.57;;
17890;SDS011;9071;48.220;14.480;2023-08-21T15:20:27;9.63;;;4.10;;
17890;SDS011;9071;48.220;14.480;2023-08-21T15:25:30;6.05;;;4.15;;
17890;SDS011;9071;48.220;14.480;2023-08-21T15:30:32;5.32;;;3.80;;
17890;SDS011;9071;48.220;14.480;2023-08-21T15:35:35;7.35;;;4.38;;
17890;SDS011;9071;48.220;14.480;2023-08-21T15:40:37;4.97;;;3.72;;
17890;SDS011;9071;48.220;14.480;2023-08-21T15:45:39;6.57;;;3.95;;
17890;SDS011;9071;48.220;14.480;2023-08-21T15:50:43;5.60;;;3.67;;
17890;SDS011;9071;48.220;14.480;2023-08-21T15:55:45;4.53;;;3.75;;
17890;SDS011;9071;48.220;14.480;2023-08-21T16:00:47;7.25;;;4.53;;
17890;SDS011;9071;48.220;14.480;2023-08-21T16:05:50;7.30;;;4.30;;
17890;SDS011;9071;48.220;14.480;2023-08-21T16:10:52;7.65;;;4.30;;
17890;SDS011;9071;48.220;14.480;2023-08-21T16:15:54;8.15;;;4.35;;
17890;SDS011;9071;48.220;14.480;2023-08-21T16:20:58;6.72;;;3.50;;
17890;SDS011;9071;48.220;14.480;2023-08-21T16:26:00;5.70;;;3.80;;
17890;SDS011;9071;48.220;14.480;2023-08-21T16:31:02;4.80;;;3.78;;
17890;SDS011;9071;48.220;14.480;2023-08-21T16:36:06;7.30;;;3.75;;
17890;SDS011;9071;48.220;14.480;2023-08-21T16:41:08;7.93;;;4.18;;
17890;SDS011;9071;48.220;14.480;2023-08-21T16:46:10;9.07;;;4.00;;
17890;SDS011;9071;48.220;14.480;2023-08-21T16:51:14;7.53;;;4.82;;
17890;SDS011;9071;48.220;14.480;2023-08-21T16:56:16;7.53;;;4.75;;
17890;SDS011;9071;48.220;14.480;2023-08-21T17:01:18;11.20;;;4.53;;
17890;SDS011;9071;48.220;14.480;2023-08-21T17:06:22;11.88;;;4.63;;
17890;SDS011;9071;48.220;14.480;2023-08-21T17:11:24;8.88;;;4.40;;
17890;SDS011;9071;48.220;14.480;2023-08-21T17:16:26;6.60;;;4.53;;
17890;SDS011;9071;48.220;14.480;2023-08-21T17:21:29;6.65;;;4.70;;
17890;SDS011;9071;48.220;14.480;2023-08-21T17:26:32;10.10;;;5.53;;
17890;SDS011;9071;48.220;14.480;2023-08-21T17:31:34;6.28;;;4.53;;
17890;SDS011;9071;48.220;14.480;2023-08-21T17:36:37;9.85;;;5.13;;
17890;SDS011;9071;48.220;14.480;2023-08-21T17:41:40;7.07;;;5.38;;
17890;SDS011;9071;48.220;14.480;2023-08-21T17:46:42;7.78;;;4.97;;
17890;SDS011;9071;48.220;14.480;2023-08-21T17:51:45;7.80;;;5.15;;
17890;SDS011;9071;48.220;14.480;2023-08-21T17:56:47;15.40;;;4.80;;
17890;SDS011;9071;48.220;14.480;2023-08-21T18:01:49;7.70;;;4.93;;
17890;SDS011;9071;48.220;14.480;2023-08-21T18:06:54;11.52;;;5.20;;
17890;SDS011;9071;48.220;14.480;2023-08-21T18:11:56;8.70;;;5.03;;
17890;SDS011;9071;48.220;14.480;2023-08-21T18:16:59;12.73;;;5.80;;
17890;SDS011;9071;48.220;14.480;2023-08-21T18:22:04;14.27;;;6.95;;
17890;SDS011;9071;48.220;14.480;2023-08-21T18:27:07;13.43;;;6.32;;
17890;SDS011;9071;48.220;14.480;2023-08-21T18:32:09;14.30;;;6.90;;
17890;SDS011;9071;48.220;14.480;2023-08-21T18:37:13;32.78;;;17.35;;
17890;SDS011;9071;48.220;14.480;2023-08-21T18:42:15;23.50;;;11.90;;
17890;SDS011;9071;48.220;14.480;2023-08-21T18:47:17;13.93;;;7.72;;
17890;SDS011;9071;48.220;14.480;2023-08-21T18:52:21;11.82;;;7.55;;
17890;SDS011;9071;48.220;14.480;2023-08-21T18:57:23;11.88;;;7.20;;
17890;SDS011;9071;48.220;14.480;2023-08-21T19:02:25;17.67;;;7.20;;
17890;SDS011;9071;48.220;14.480;2023-08-21T19:07:29;7.85;;;6.15;;
17890;SDS011;9071;48.220;14.480;2023-08-21T19:12:31;36.88;;;7.55;;
17890;SDS011;9071;48.220;14.480;2023-08-21T19:17:33;38.60;;;8.30;;
17890;SDS011;9071;48.220;14.480;2023-08-21T19:22:37;27.73;;;7.93;;
17890;SDS011;9071;48.220;14.480;2023-08-21T19:27:39;18.20;;;7.28;;
17890;SDS011;9071;48.220;14.480;2023-08-21T19:32:41;18.00;;;8.32;;
17890;SDS011;9071;48.220;14.480;2023-08-21T19:37:45;28.15;;;8.70;;
17890;SDS011;9071;48.220;14.480;2023-08-21T19:42:47;19.10;;;8.10;;
17890;SDS011;9071;48.220;14.480;2023-08-21T19:47:49;18.45;;;7.63;;
17890;SDS011;9071;48.220;14.480;2023-08-21T19:52:52;12.75;;;7.22;;
17890;SDS011;9071;48.220;14.480;2023-08-21T19:57:54;12.43;;;6.22;;
17890;SDS011;9071;48.220;14.480;2023-08-21T20:02:57;11.23;;;6.70;;
17890;SDS011;9071;48.220;14.480;2023-08-21T20:08:01;14.82;;;6.75;;
17890;SDS011;9071;48.220;14.480;2023-08-21T20:13:03;10.98;;;6.70;;
17890;SDS011;9071;48.220;14.480;2023-08-21T20:18:05;12.05;;;7.47;;
17890;SDS011;9071;48.220;14.480;2023-08-21T20:23:09;12.10;;;7.75;;
17890;SDS011;9071;48.220;14.480;2023-08-21T20:28:11;11.23;;;7.53;;
17890;SDS011;9071;48.220;14.480;2023-08-21T20:33:14;10.70;;;7.32;;
17890;SDS011;9071;48.220;14.480;2023-08-21T20:38:17;10.73;;;7.55;;
17890;SDS011;9071;48.220;14.480;2023-08-21T20:43:19;12.52;;;7.50;;
17890;SDS011;9071;48.220;14.480;2023-08-21T20:48:21;13.10;;;7.88;;
17890;SDS011;9071;48.220;14.480;2023-08-21T20:53:25;9.95;;;7.05;;
17890;SDS011;9071;48.220;14.480;2023-08-21T20:58:27;10.70;;;7.93;;
17890;SDS011;9071;48.220;14.480;2023-08-21T21:03:29;10.18;;;7.90;;
17890;SDS011;9071;48.220;14.480;2023-08-21T21:08:33;9.98;;;7.55;;
17890;SDS011;9071;48.220;14.480;2023-08-21T21:13:35;10.13;;;7.95;;
17890;SDS011;9071;48.220;14.480;2023-08-21T21:18:37;10.80;;;7.72;;
17890;SDS011;9071;48.220;14.480;2023-08-21T21:23:41;12.70;;;8.43;;
17890;SDS011;9071;48.220;14.480;2023-08-21T21:28:43;12.10;;;7.80;;
17890;SDS011;9071;48.220;14.480;2023-08-21T21:33:45;11.48;;;8.35;;
17890;SDS011;9071;48.220;14.480;2023-08-21T21:38:53;14.55;;;8.27;;
17890;SDS011;9071;48.220;14.480;2023-08-21T21:43:56;13.65;;;7.75;;
17890;SDS011;9071;48.220;14.480;2023-08-21T21:48:58;14.20;;;8.30;;
17890;SDS011;9071;48.220;14.480;2023-08-21T21:54:03;12.52;;;8.45;;
17890;SDS011;9071;48.220;14.480;2023-08-21T21:59:05;10.85;;;8.30;;
17890;SDS011;9071;48.220;14.480;2023-08-21T22:04:07;14.93;;;8.60;;
17890;SDS011;9071;48.220;14.480;2023-08-21T22:09:10;12.27;;;8.20;;
17890;SDS011;9071;48.220;14.480;2023-08-21T22:14:15;12.63;;;9.07;;
17890;SDS011;9071;48.220;14.480;2023-08-21T22:19:17;13.50;;;8.55;;
17890;SDS011;9071;48.220;14.480;2023-08-21T22:24:21;17.33;;;9.30;;
17890;SDS011;9071;48.220;14.480;2023-08-21T22:29:23;13.23;;;9.07;;
17890;SDS011;9071;48.220;14.480;2023-08-21T22:34:25;11.77;;;9.10;;
17890;SDS011;9071;48.220;14.480;2023-08-21T22:39:28;12.48;;;8.70;;
17890;SDS011;9071;48.220;14.480;2023-08-21T22:44:30;13.00;;;8.55;;
17890;SDS011;9071;48.220;14.480;2023-08-21T22:49:33;13.05;;;9.32;;
17890;SDS011;9071;48.220;14.480;2023-08-21T22:54:36;11.60;;;8.75;;
17890;SDS011;9071;48.220;14.480;2023-08-21T22:59:38;13.85;;;9.20;;
17890;SDS011;9071;48.220;14.480;2023-08-21T23:04:40;11.05;;;8.60;;
17890;SDS011;9071;48.220;14.480;2023-08-21T23:09:44;17.67;;;10.07;;
17890;SDS011;9071;48.220;14.480;2023-08-21T23:14:46;12.82;;;9.65;;
17890;SDS011;9071;48.220;14.480;2023-08-21T23:19:48;13.20;;;8.85;;
17890;SDS011;9071;48.220;14.480;2023-08-21T23:24:52;13.05;;;9.05;;
17890;SDS011;9071;48.220;14.480;2023-08-21T23:29:54;15.63;;;10.88;;
17890;SDS011;9071;48.220;14.480;2023-08-21T23:34:56;12.10;;;9.23;;
17890;SDS011;9071;48.220;14.480;2023-08-21T23:39:59;11.80;;;9.80;;
17890;SDS011;9071;48.220;14.480;2023-08-21T23:45:01;16.00;;;9.60;;
17890;SDS011;9071;48.220;14.480;2023-08-21T23:50:05;15.52;;;10.55;;
17890;SDS011;9071;48.220;14.480;2023-08-21T23:55:09;14.75;;;11.15;;
